sensor_id;sensor_type;location;lat;lon;timestamp;pressure;altitude;pressure_sealevel;temperature;humidity
69316;BME280;56445;43.552;5.034;2023-09-12T19:43:35;101416.31;;;31.81;36.83
69316;BME280;56445;43.552;5.034;2023-09-12T19:46:04;101430.66;;;35.25;32.22
69316;BME280;56445;43.552;5.034;2023-09-12T19:48:33;101438.41;;;36.96;30.33
69316;BME280;56445;43.552;5.034;2023-09-12T19:51:06;101429.00;;;37.84;29.66
69316;BME280;56445;43.552;5.034;2023-09-12T19:53:39;101418.88;;;38.44;29.27
69316;BME280;56445;43.552;5.034;2023-09-12T19:56:18;101431.59;;;39.02;28.42
69316;BME280;56445;43.552;5.034;2023-09-12T19:58:46;101424.56;;;39.30;28.55
69316;BME280;56445;43.552;5.034;2023-09-12T20:01:13;101423.53;;;39.49;28.05
69316;BME280;56445;43.552;5.034;2023-09-12T20:03:44;101421.63;;;39.67;28.08
69316;BME280;56445;43.552;5.034;2023-09-12T20:06:12;101459.38;;;40.00;27.92
69316;BME280;56445;43.552;5.034;2023-09-12T20:08:42;101435.16;;;40.02;28.10
69316;BME280;56445;43.552;5.034;2023-09-12T20:11:13;101442.88;;;40.16;27.79
69316;BME280;56445;43.552;5.034;2023-09-12T20:13:40;101442.13;;;40.30;27.76
69316;BME280;56445;43.552;5.034;2023-09-12T20:16:15;101455.97;;;40.53;27.84
69316;BME280;56445;43.552;5.034;2023-09-12T20:18:43;101447.84;;;40.48;27.62
69316;BME280;56445;43.552;5.034;2023-09-12T20:21:10;101434.97;;;40.51;27.73
69316;BME280;56445;43.552;5.034;2023-09-12T20:23:38;101444.69;;;40.60;27.66
69316;BME280;56445;43.552;5.034;2023-09-12T20:26:05;101429.72;;;40.53;27.80
69316;BME280;56445;43.552;5.034;2023-09-12T20:28:36;101469.78;;;40.80;27.31
69316;BME280;56445;43.552;5.034;2023-09-12T20:31:04;101451.97;;;40.72;27.29
69316;BME280;56445;43.552;5.034;2023-09-12T20:33:32;101456.41;;;40.73;27.40
69316;BME280;56445;43.552;5.034;2023-09-12T20:36:00;101453.63;;;40.77;27.58
69316;BME280;56445;43.552;5.034;2023-09-12T20:38:27;101441.47;;;40.73;27.33
69316;BME280;56445;43.552;5.034;2023-09-12T20:40:54;101461.72;;;40.78;27.28
69316;BME280;56445;43.552;5.034;2023-09-12T20:43:21;101478.28;;;40.91;27.30
69316;BME280;56445;43.552;5.034;2023-09-12T20:45:52;101452.78;;;40.80;27.17
69316;BME280;56445;43.552;5.034;2023-09-12T20:48:22;101486.38;;;40.96;27.23
69316;BME280;56445;43.552;5.034;2023-09-12T20:50:49;101442.31;;;40.77;27.05
69316;BME280;56445;43.552;5.034;2023-09-12T20:53:16;101445.53;;;40.79;26.95
69316;BME280;56445;43.552;5.034;2023-09-12T20:55:44;101438.22;;;40.74;27.10
69316;BME280;56445;43.552;5.034;2023-09-12T20:58:12;101424.47;;;40.66;27.06
69316;BME280;56445;43.552;5.034;2023-09-12T21:00:40;101430.13;;;40.69;26.96
69316;BME280;56445;43.552;5.034;2023-09-12T21:03:08;101445.53;;;40.75;26.88
69316;BME280;56445;43.552;5.034;2023-09-12T21:05:36;101447.50;;;40.71;27.09
69316;BME280;56445;43.552;5.034;2023-09-12T21:08:04;101443.47;;;40.65;27.03
69316;BME280;56445;43.552;5.034;2023-09-12T21:10:33;101435.34;;;40.60;26.86
69316;BME280;56445;43.552;5.034;2023-09-12T21:13:12;101434.16;;;40.61;26.92
69316;BME280;56445;43.552;5.034;2023-09-12T21:15:48;101418.75;;;40.44;26.76
69316;BME280;56445;43.552;5.034;2023-09-12T21:18:19;101442.22;;;40.52;26.82
69316;BME280;56445;43.552;5.034;2023-09-12T21:20:47;101431.69;;;40.45;26.74
69316;BME280;56445;43.552;5.034;2023-09-12T21:23:15;101436.53;;;40.44;26.63
69316;BME280;56445;43.552;5.034;2023-09-12T21:25:42;101456.75;;;40.50;26.71
69316;BME280;56445;43.552;5.034;2023-09-12T21:28:09;101441.38;;;40.33;26.65
69316;BME280;56445;43.552;5.034;2023-09-12T21:30:40;101450.19;;;40.28;26.40
69316;BME280;56445;43.552;5.034;2023-09-12T21:33:09;101449.38;;;40.28;26.34
69316;BME280;56445;43.552;5.034;2023-09-12T21:35:38;101447.72;;;40.16;26.41
69316;BME280;56445;43.552;5.034;2023-09-12T21:38:08;101459.06;;;40.23;26.69
69316;BME280;56445;43.552;5.034;2023-09-12T21:40:37;101456.19;;;40.16;26.32
69316;BME280;56445;43.552;5.034;2023-09-12T21:43:07;101465.47;;;40.13;26.32
69316;BME280;56445;43.552;5.034;2023-09-12T21:45:35;101458.97;;;40.05;26.54
69316;BME280;56445;43.552;5.034;2023-09-12T21:48:27;101450.09;;;39.99;26.51
69316;BME280;56445;43.552;5.034;2023-09-12T21:50:56;101434.28;;;39.91;26.33
69316;BME280;56445;43.552;5.034;2023-09-12T21:53:32;101463.41;;;40.02;26.46
69316;BME280;56445;43.552;5.034;2023-09-12T21:56:12;101441.97;;;39.94;26.50
69316;BME280;56445;43.552;5.034;2023-09-12T21:58:40;101423.34;;;39.86;26.48
69316;BME280;56445;43.552;5.034;2023-09-12T22:01:08;101429.03;;;39.90;26.28
69316;BME280;56445;43.552;5.034;2023-09-12T22:03:36;101421.69;;;39.85;26.47
69316;BME280;56445;43.552;5.034;2023-09-12T22:06:07;101414.44;;;39.84;26.42
69316;BME280;56445;43.552;5.034;2023-09-12T22:08:34;101439.94;;;39.95;26.45
69316;BME280;56445;43.552;5.034;2023-09-12T22:11:15;101423.28;;;39.79;26.26
69316;BME280;56445;43.552;5.034;2023-09-12T22:13:43;101429.00;;;39.86;26.24
69316;BME280;56445;43.552;5.034;2023-09-12T22:16:11;101431.81;;;39.86;26.17
69316;BME280;56445;43.552;5.034;2023-09-12T22:18:38;101428.19;;;39.85;26.29
69316;BME280;56445;43.552;5.034;2023-09-12T22:21:07;101426.56;;;39.84;25.97
69316;BME280;56445;43.552;5.034;2023-09-12T22:23:34;101432.59;;;39.83;26.09
69316;BME280;56445;43.552;5.034;2023-09-12T22:26:12;101448.84;;;39.93;25.94
69316;BME280;56445;43.552;5.034;2023-09-12T22:28:40;101420.88;;;39.74;26.09
69316;BME280;56445;43.552;5.034;2023-09-12T22:31:11;101423.28;;;39.75;26.02
69316;BME280;56445;43.552;5.034;2023-09-12T22:33:39;101420.44;;;39.72;26.28
69316;BME280;56445;43.552;5.034;2023-09-12T22:36:11;101413.53;;;39.65;26.29
69316;BME280;56445;43.552;5.034;2023-09-12T22:38:48;101425.28;;;39.68;26.06
69316;BME280;56445;43.552;5.034;2023-09-12T22:41:15;101425.63;;;39.62;26.02
69316;BME280;56445;43.552;5.034;2023-09-12T22:43:43;101439.34;;;39.60;26.12
69316;BME280;56445;43.552;5.034;2023-09-12T22:46:10;101449.81;;;39.63;26.21
69316;BME280;56445;43.552;5.034;2023-09-12T22:48:39;101432.06;;;39.56;25.83
69316;BME280;56445;43.552;5.034;2023-09-12T22:51:08;101452.22;;;39.58;26.09
